Terminal Aerodrome Forecast
Issued by NWS

Home | Current Version | Previous Version | Text Only | Print | Product List | Glossary On
Versions: 1 2 3 4 5 6 7 8 9 10 11 12 13 14 15 16 17 18
000
FTUS45 KBYZ 160535
TAFLVM
TAF
KLVM 160535Z 1606/1706 25016KT P6SM VCSH OVC040
     FM170300 25011KT P6SM -SN OVC035=

USA.gov is the U.S. government's official web portal to all federal, state and local government web resources and services.